sensor_id;sensor_type;location;lat;lon;timestamp;pressure;altitude;pressure_sealevel;temperature
51693;BMP280;37777;53.066;21.638;2024-03-25T00:00:22;99117.56;;;3.13
51693;BMP280;37777;53.066;21.638;2024-03-25T00:32:31;99084.38;;;3.14
51693;BMP280;37777;53.066;21.638;2024-03-25T00:39:32;99088.47;;;3.20
51693;BMP280;37777;53.066;21.638;2024-03-25T00:46:32;99082.28;;;3.29
51693;BMP280;37777;53.066;21.638;2024-03-25T00:53:33;99075.25;;;3.24
51693;BMP280;37777;53.066;21.638;2024-03-25T01:25:39;99070.50;;;3.30
51693;BMP280;37777;53.066;21.638;2024-03-25T01:32:40;99065.59;;;3.32
51693;BMP280;37777;53.066;21.638;2024-03-25T01:48:06;99069.38;;;3.31
51693;BMP280;37777;53.066;21.638;2024-03-25T01:55:26;99081.38;;;3.25
51693;BMP280;37777;53.066;21.638;2024-03-25T02:02:27;99060.50;;;3.18
51693;BMP280;37777;53.066;21.638;2024-03-25T02:09:28;99070.88;;;3.19
51693;BMP280;37777;53.066;21.638;2024-03-25T02:16:29;99073.53;;;3.19
51693;BMP280;37777;53.066;21.638;2024-03-25T02:23:29;99074.63;;;3.18
51693;BMP280;37777;53.066;21.638;2024-03-25T02:30:30;99074.34;;;3.11
51693;BMP280;37777;53.066;21.638;2024-03-25T02:37:31;99068.53;;;3.09
51693;BMP280;37777;53.066;21.638;2024-03-25T02:44:32;99074.84;;;3.04
51693;BMP280;37777;53.066;21.638;2024-03-25T02:51:33;99067.34;;;2.98
51693;BMP280;37777;53.066;21.638;2024-03-25T03:23:39;99074.09;;;2.86
51693;BMP280;37777;53.066;21.638;2024-03-25T03:30:39;99086.81;;;2.90
51693;BMP280;37777;53.066;21.638;2024-03-25T03:37:40;99087.00;;;2.84
51693;BMP280;37777;53.066;21.638;2024-03-25T03:44:59;99089.97;;;2.83
51693;BMP280;37777;53.066;21.638;2024-03-25T03:52:00;99095.97;;;2.80
51693;BMP280;37777;53.066;21.638;2024-03-25T03:59:00;99098.94;;;2.78
51693;BMP280;37777;53.066;21.638;2024-03-25T04:06:08;99092.34;;;2.84
51693;BMP280;37777;53.066;21.638;2024-03-25T04:13:08;99100.81;;;2.86
51693;BMP280;37777;53.066;21.638;2024-03-25T04:20:41;99111.19;;;2.97
51693;BMP280;37777;53.066;21.638;2024-03-25T04:27:42;99091.81;;;3.00
51693;BMP280;37777;53.066;21.638;2024-03-25T05:50:40;99136.97;;;3.40
51693;BMP280;37777;53.066;21.638;2024-03-25T05:57:41;99150.63;;;3.47
51693;BMP280;37777;53.066;21.638;2024-03-25T06:04:41;99138.13;;;3.60
51693;BMP280;37777;53.066;21.638;2024-03-25T06:11:42;99138.09;;;3.69
51693;BMP280;37777;53.066;21.638;2024-03-25T06:18:42;99142.63;;;3.77
51693;BMP280;37777;53.066;21.638;2024-03-25T06:25:44;99155.16;;;3.85
51693;BMP280;37777;53.066;21.638;2024-03-25T06:32:44;99160.78;;;3.93
51693;BMP280;37777;53.066;21.638;2024-03-25T06:40:03;99160.41;;;4.03
51693;BMP280;37777;53.066;21.638;2024-03-25T06:47:05;99165.13;;;4.27
51693;BMP280;37777;53.066;21.638;2024-03-25T06:54:05;99176.94;;;4.26
51693;BMP280;37777;53.066;21.638;2024-03-25T07:01:07;99194.50;;;4.36
51693;BMP280;37777;53.066;21.638;2024-03-25T07:08:08;99189.63;;;4.59
51693;BMP280;37777;53.066;21.638;2024-03-25T07:15:08;99191.63;;;4.96
51693;BMP280;37777;53.066;21.638;2024-03-25T07:22:09;99199.66;;;5.29
51693;BMP280;37777;53.066;21.638;2024-03-25T07:29:09;99203.13;;;5.29
51693;BMP280;37777;53.066;21.638;2024-03-25T07:53:00;99208.28;;;5.72
51693;BMP280;37777;53.066;21.638;2024-03-25T08:07:40;99226.28;;;5.96
51693;BMP280;37777;53.066;21.638;2024-03-25T08:31:25;99234.06;;;6.13
51693;BMP280;37777;53.066;21.638;2024-03-25T08:38:25;99236.03;;;6.41
51693;BMP280;37777;53.066;21.638;2024-03-25T08:53:48;99247.09;;;6.64
51693;BMP280;37777;53.066;21.638;2024-03-25T09:17:34;99257.50;;;7.10
51693;BMP280;37777;53.066;21.638;2024-03-25T09:24:34;99255.06;;;7.05
51693;BMP280;37777;53.066;21.638;2024-03-25T09:31:35;99261.91;;;7.02
51693;BMP280;37777;53.066;21.638;2024-03-25T09:38:35;99270.50;;;6.92
51693;BMP280;37777;53.066;21.638;2024-03-25T09:45:36;99284.13;;;6.71
51693;BMP280;37777;53.066;21.638;2024-03-25T09:52:36;99280.72;;;6.46
51693;BMP280;37777;53.066;21.638;2024-03-25T09:59:43;99274.84;;;6.56
51693;BMP280;37777;53.066;21.638;2024-03-25T10:06:44;99276.41;;;6.69
51693;BMP280;37777;53.066;21.638;2024-03-25T10:30:28;99269.16;;;7.46
51693;BMP280;37777;53.066;21.638;2024-03-25T10:37:29;99265.00;;;7.65
51693;BMP280;37777;53.066;21.638;2024-03-25T10:44:29;99268.16;;;8.38
51693;BMP280;37777;53.066;21.638;2024-03-25T10:57:25;99256.06;;;8.90
51693;BMP280;37777;53.066;21.638;2024-03-25T11:04:44;99253.59;;;8.81
51693;BMP280;37777;53.066;21.638;2024-03-25T11:11:45;99253.53;;;8.39
51693;BMP280;37777;53.066;21.638;2024-03-25T11:27:09;99261.22;;;8.37
51693;BMP280;37777;53.066;21.638;2024-03-25T11:34:09;99251.31;;;8.44
51693;BMP280;37777;53.066;21.638;2024-03-25T11:41:11;99239.28;;;8.58
51693;BMP280;37777;53.066;21.638;2024-03-25T11:48:14;99240.28;;;8.69
51693;BMP280;37777;53.066;21.638;2024-03-25T11:55:17;99230.50;;;8.61
51693;BMP280;37777;53.066;21.638;2024-03-25T12:02:18;99234.59;;;8.74
51693;BMP280;37777;53.066;21.638;2024-03-25T12:09:19;99234.97;;;8.96
51693;BMP280;37777;53.066;21.638;2024-03-25T12:16:38;99240.25;;;9.12
51693;BMP280;37777;53.066;21.638;2024-03-25T12:32:03;99229.97;;;8.94
51693;BMP280;37777;53.066;21.638;2024-03-25T12:39:04;99242.94;;;8.89
51693;BMP280;37777;53.066;21.638;2024-03-25T12:46:04;99243.38;;;8.71
51693;BMP280;37777;53.066;21.638;2024-03-25T12:53:05;99253.66;;;8.66
51693;BMP280;37777;53.066;21.638;2024-03-25T13:00:06;99258.38;;;8.49
51693;BMP280;37777;53.066;21.638;2024-03-25T13:15:30;99265.81;;;9.68
51693;BMP280;37777;53.066;21.638;2024-03-25T13:22:31;99263.38;;;10.13
51693;BMP280;37777;53.066;21.638;2024-03-25T13:29:32;99277.44;;;9.72
51693;BMP280;37777;53.066;21.638;2024-03-25T13:36:38;99273.41;;;9.59
51693;BMP280;37777;53.066;21.638;2024-03-25T13:43:44;99286.94;;;9.62
51693;BMP280;37777;53.066;21.638;2024-03-25T13:50:45;99277.09;;;9.24
51693;BMP280;37777;53.066;21.638;2024-03-25T13:57:45;99281.69;;;8.80
51693;BMP280;37777;53.066;21.638;2024-03-25T14:04:46;99280.28;;;8.67
51693;BMP280;37777;53.066;21.638;2024-03-25T14:11:46;99295.47;;;8.56
51693;BMP280;37777;53.066;21.638;2024-03-25T14:18:47;99291.94;;;8.52
51693;BMP280;37777;53.066;21.638;2024-03-25T14:42:32;99307.81;;;7.86
51693;BMP280;37777;53.066;21.638;2024-03-25T14:57:54;99313.78;;;7.79
51693;BMP280;37777;53.066;21.638;2024-03-25T15:04:54;99312.41;;;7.69
51693;BMP280;37777;53.066;21.638;2024-03-25T15:11:55;99315.28;;;7.77
51693;BMP280;37777;53.066;21.638;2024-03-25T15:18:55;99321.88;;;7.79
51693;BMP280;37777;53.066;21.638;2024-03-25T15:34:19;99342.19;;;7.92
51693;BMP280;37777;53.066;21.638;2024-03-25T15:49:45;99358.97;;;7.54
51693;BMP280;37777;53.066;21.638;2024-03-25T15:56:47;99375.66;;;7.31
51693;BMP280;37777;53.066;21.638;2024-03-25T16:03:47;99372.94;;;7.31
51693;BMP280;37777;53.066;21.638;2024-03-25T16:10:48;99370.41;;;7.51
51693;BMP280;37777;53.066;21.638;2024-03-25T16:17:48;99372.50;;;7.57
51693;BMP280;37777;53.066;21.638;2024-03-25T16:24:52;99385.44;;;7.52
51693;BMP280;37777;53.066;21.638;2024-03-25T16:31:53;99383.59;;;7.40
51693;BMP280;37777;53.066;21.638;2024-03-25T16:38:53;99406.78;;;7.16
51693;BMP280;37777;53.066;21.638;2024-03-25T16:54:16;99409.81;;;7.02
51693;BMP280;37777;53.066;21.638;2024-03-25T17:01:17;99409.19;;;6.93
51693;BMP280;37777;53.066;21.638;2024-03-25T17:08:18;99415.81;;;6.83
51693;BMP280;37777;53.066;21.638;2024-03-25T17:15:18;99435.28;;;6.68
51693;BMP280;37777;53.066;21.638;2024-03-25T17:22:19;99440.69;;;6.56
51693;BMP280;37777;53.066;21.638;2024-03-25T17:37:42;99452.22;;;6.44
51693;BMP280;37777;53.066;21.638;2024-03-25T17:44:48;99456.47;;;6.32
51693;BMP280;37777;53.066;21.638;2024-03-25T17:51:49;99467.81;;;6.38
51693;BMP280;37777;53.066;21.638;2024-03-25T17:58:50;99474.97;;;6.34
51693;BMP280;37777;53.066;21.638;2024-03-25T18:05:50;99483.19;;;6.16
51693;BMP280;37777;53.066;21.638;2024-03-25T18:12:51;99484.19;;;6.12
51693;BMP280;37777;53.066;21.638;2024-03-25T18:20:04;99484.22;;;6.24
51693;BMP280;37777;53.066;21.638;2024-03-25T18:27:04;99487.34;;;6.26
51693;BMP280;37777;53.066;21.638;2024-03-25T18:34:05;99493.50;;;6.27
51693;BMP280;37777;53.066;21.638;2024-03-25T18:41:06;99492.19;;;6.33
51693;BMP280;37777;53.066;21.638;2024-03-25T18:48:06;99501.03;;;6.33
51693;BMP280;37777;53.066;21.638;2024-03-25T18:55:08;99498.81;;;6.36
51693;BMP280;37777;53.066;21.638;2024-03-25T19:02:08;99492.31;;;6.37
51693;BMP280;37777;53.066;21.638;2024-03-25T19:17:37;99517.81;;;6.30
51693;BMP280;37777;53.066;21.638;2024-03-25T19:24:38;99515.13;;;6.30
51693;BMP280;37777;53.066;21.638;2024-03-25T19:40:00;99516.16;;;6.26
51693;BMP280;37777;53.066;21.638;2024-03-25T19:47:00;99521.38;;;6.22
51693;BMP280;37777;53.066;21.638;2024-03-25T19:54:07;99515.75;;;6.15
51693;BMP280;37777;53.066;21.638;2024-03-25T20:01:11;99514.75;;;6.07
51693;BMP280;37777;53.066;21.638;2024-03-25T20:08:12;99528.38;;;6.02
51693;BMP280;37777;53.066;21.638;2024-03-25T20:15:12;99520.56;;;5.88
51693;BMP280;37777;53.066;21.638;2024-03-25T20:22:18;99525.25;;;5.79
51693;BMP280;37777;53.066;21.638;2024-03-25T20:29:18;99534.91;;;5.71
51693;BMP280;37777;53.066;21.638;2024-03-25T20:36:19;99540.81;;;5.64
51693;BMP280;37777;53.066;21.638;2024-03-25T20:43:38;99548.28;;;5.59
51693;BMP280;37777;53.066;21.638;2024-03-25T20:50:42;99557.53;;;5.49
51693;BMP280;37777;53.066;21.638;2024-03-25T20:57:43;99569.06;;;5.11
51693;BMP280;37777;53.066;21.638;2024-03-25T21:04:44;99566.69;;;5.18
51693;BMP280;37777;53.066;21.638;2024-03-25T21:12:03;99570.63;;;5.42
51693;BMP280;37777;53.066;21.638;2024-03-25T21:19:03;99570.94;;;5.49
51693;BMP280;37777;53.066;21.638;2024-03-25T21:26:04;99581.13;;;5.26
51693;BMP280;37777;53.066;21.638;2024-03-25T21:41:33;99581.78;;;5.32
51693;BMP280;37777;53.066;21.638;2024-03-25T22:05:50;99595.81;;;4.99
51693;BMP280;37777;53.066;21.638;2024-03-25T22:12:50;99590.94;;;4.83
51693;BMP280;37777;53.066;21.638;2024-03-25T22:36:35;99605.22;;;4.40
51693;BMP280;37777;53.066;21.638;2024-03-25T22:52:14;99603.31;;;4.14
51693;BMP280;37777;53.066;21.638;2024-03-25T22:59:15;99605.69;;;4.07
51693;BMP280;37777;53.066;21.638;2024-03-25T23:06:15;99609.47;;;3.97
51693;BMP280;37777;53.066;21.638;2024-03-25T23:13:16;99603.78;;;3.90
51693;BMP280;37777;53.066;21.638;2024-03-25T23:20:16;99611.16;;;3.67
51693;BMP280;37777;53.066;21.638;2024-03-25T23:27:17;99595.06;;;3.58
51693;BMP280;37777;53.066;21.638;2024-03-25T23:34:17;99614.50;;;3.32
51693;BMP280;37777;53.066;21.638;2024-03-25T23:49:40;99625.59;;;3.17
51693;BMP280;37777;53.066;21.638;2024-03-25T23:56:40;99631.63;;;3.00
